Time;durP1;ratioP1;P1;durP2;ratioP2;P2;SDS_P1;SDS_P2;PMS_P1;PMS_P2;Temp;Humidity;BMP_temperature;BMP_pressure;BME280_temperature;BME280_humidity;BME280_pressure;Samples;Min_cycle;Max_cycle;Signal;HPM_P1;HPM_P2
2021/04/24 00:00:12;;;;;;;5.20;3.45;;;;;;;4.98;65.79;99851.20;1815368;78;21008;-51
2021/04/24 00:02:43;;;;;;;5.47;3.50;;;;;;;4.94;66.13;99850.86;1815755;78;20977;-51
2021/04/24 00:09:11;;;;;;;9.50;3.12;;;;;;;4.91;66.37;99835.80;1747391;79;22769;-46
2021/04/24 00:11:39;;;;;;;7.22;3.30;;;;;;;4.84;66.53;99853.34;1702080;82;21159;-48
2021/04/24 00:14:07;;;;;;;6.35;3.05;;;;;;;4.80;66.72;99850.35;1694323;82;21384;-44
2021/04/24 00:16:35;;;;;;;4.22;3.00;;;;;;;4.76;66.83;99848.66;1691986;82;21459;-50
2021/04/24 00:19:04;;;;;;;5.80;3.00;;;;;;;4.75;67.04;99853.59;1692721;82;21057;-50
2021/04/24 00:21:32;;;;;;;3.67;2.90;;;;;;;4.73;67.13;99841.13;1693503;82;21037;-51
2021/04/24 00:24:03;;;;;;;7.78;3.65;;;;;;;4.72;67.19;99851.40;1694784;82;21557;-51
2021/04/24 00:26:31;;;;;;;6.35;3.98;;;;;;;4.70;67.70;99847.90;1692992;82;21396;-51
2021/04/24 00:28:59;;;;;;;5.90;3.58;;;;;;;4.68;67.81;99844.83;1693876;82;21006;-51
2021/04/24 00:31:27;;;;;;;7.00;3.17;;;;;;;4.64;68.21;99838.70;1696664;82;21200;-50
2021/04/24 00:33:55;;;;;;;4.90;3.17;;;;;;;4.63;68.62;99850.74;1693228;82;21475;-50
2021/04/24 00:36:24;;;;;;;4.60;3.15;;;;;;;4.61;68.73;99853.45;1693152;82;21017;-49
2021/04/24 00:38:51;;;;;;;5.75;2.90;;;;;;;4.59;68.94;99857.09;1693215;82;21444;-50
2021/04/24 00:41:20;;;;;;;5.97;3.58;;;;;;;4.56;69.50;99849.15;1693449;82;21172;-50
2021/04/24 00:43:48;;;;;;;3.95;3.20;;;;;;;4.54;69.81;99849.66;1694037;82;21037;-51
2021/04/24 00:46:17;;;;;;;6.58;3.37;;;;;;;4.48;69.94;99846.67;1694047;81;21133;-51
2021/04/24 00:48:46;;;;;;;6.35;3.55;;;;;;;4.45;70.71;99841.39;1693824;82;21164;-51
2021/04/24 00:51:14;;;;;;;5.08;3.20;;;;;;;4.43;70.93;99843.23;1693098;82;21217;-50
2021/04/24 00:53:42;;;;;;;8.95;3.70;;;;;;;4.42;71.46;99854.80;1693680;82;21159;-50
2021/04/24 00:56:10;;;;;;;5.87;3.17;;;;;;;4.37;72.06;99843.39;1694236;82;21006;-50
2021/04/24 00:58:39;;;;;;;5.03;3.80;;;;;;;4.37;72.23;99850.06;1693145;82;21049;-50
2021/04/24 01:01:07;;;;;;;7.50;3.65;;;;;;;4.33;72.68;99851.04;1693376;82;20998;-56
2021/04/24 01:03:35;;;;;;;5.50;3.85;;;;;;;4.30;73.22;99851.09;1692742;82;22128;-49
2021/04/24 01:06:03;;;;;;;6.35;3.83;;;;;;;4.29;73.52;99848.02;1693630;82;21597;-50
2021/04/24 01:08:31;;;;;;;5.47;3.55;;;;;;;4.27;74.00;99847.18;1687619;82;21161;-49
2021/04/24 01:11:00;;;;;;;7.42;4.08;;;;;;;4.25;74.20;99834.30;1680993;83;21022;-50
2021/04/24 01:13:29;;;;;;;4.12;3.47;;;;;;;4.23;74.48;99839.69;1684734;83;21002;-50
2021/04/24 01:15:56;;;;;;;5.72;3.72;;;;;;;4.22;74.73;99834.40;1684510;83;21358;-50
2021/04/24 01:18:24;;;;;;;5.90;3.85;;;;;;;4.18;74.97;99833.13;1679755;83;21093;-50
2021/04/24 01:20:53;;;;;;;4.85;3.25;;;;;;;4.17;74.97;99836.70;1681073;83;21229;-50
2021/04/24 01:23:21;;;;;;;5.80;3.40;;;;;;;4.16;75.11;99834.95;1679208;83;21045;-50
2021/04/24 01:25:49;;;;;;;5.55;3.92;;;;;;;4.13;75.17;99835.02;1680322;83;21092;-50
2021/04/24 01:28:18;;;;;;;6.75;3.42;;;;;;;4.12;75.42;99835.94;1679652;83;22187;-50
2021/04/24 01:30:46;;;;;;;5.03;3.45;;;;;;;4.09;75.51;99835.98;1679308;83;21245;-51
2021/04/24 01:33:14;;;;;;;7.15;3.67;;;;;;;4.06;75.62;99833.41;1679432;83;21452;-50
2021/04/24 01:35:43;;;;;;;6.37;3.62;;;;;;;4.02;75.44;99826.37;1680463;82;21156;-50
2021/04/24 01:38:11;;;;;;;8.93;3.80;;;;;;;4.01;75.46;99827.30;1678965;83;21030;-51
2021/04/24 01:40:40;;;;;;;5.97;3.35;;;;;;;3.97;75.46;99830.94;1683923;83;21833;-50
2021/04/24 01:43:08;;;;;;;4.47;3.10;;;;;;;3.96;75.44;99826.52;1684513;83;21002;-51
2021/04/24 01:45:36;;;;;;;8.18;3.20;;;;;;;3.93;75.35;99826.57;1681255;83;21144;-51
2021/04/24 01:48:06;;;;;;;5.33;3.15;;;;;;;3.91;75.31;99831.08;1683675;83;20982;-51
2021/04/24 01:50:39;;;;;;;3.90;3.25;;;;;;;3.88;75.49;99833.80;1679660;83;20999;-45
2021/04/24 01:53:12;;;;;;;5.75;3.80;;;;;;;3.83;75.62;99835.69;1680825;83;21455;-46
2021/04/24 01:55:49;;;;;;;4.53;3.15;;;;;;;3.84;75.68;99836.13;1811684;76;22758;-46
2021/04/24 01:58:20;;;;;;;6.67;3.27;;;;;;;3.76;76.10;99840.28;1764807;79;20977;-45
2021/04/24 02:00:55;;;;;;;4.87;3.75;;;;;;;3.72;76.42;99848.37;1765722;79;21404;-46
2021/04/24 02:03:23;;;;;;;6.05;3.67;;;;;;;3.66;76.77;99842.25;1763954;79;21005;-45
2021/04/24 02:05:51;;;;;;;5.30;3.50;;;;;;;3.64;77.09;99836.09;1766567;79;21067;-46
2021/04/24 02:08:21;;;;;;;7.83;3.85;;;;;;;3.59;77.17;99837.97;1761295;79;20926;-46
2021/04/24 02:10:54;;;;;;;6.55;3.50;;;;;;;3.58;77.37;99833.55;1765186;78;20962;-46
2021/04/24 02:13:26;;;;;;;7.50;3.75;;;;;;;3.58;77.42;99838.88;1763822;79;21411;-47
2021/04/24 02:15:54;;;;;;;5.50;3.30;;;;;;;3.56;77.73;99836.69;1764676;79;20980;-46
2021/04/24 02:18:22;;;;;;;6.25;3.55;;;;;;;3.56;78.20;99838.02;1769036;79;21037;-46
2021/04/24 02:20:50;;;;;;;5.10;3.47;;;;;;;3.52;78.41;99841.68;1773339;79;21139;-45
2021/04/24 02:23:18;;;;;;;5.92;3.40;;;;;;;3.48;78.73;99834.64;1761300;79;21128;-46
2021/04/24 02:25:46;;;;;;;6.55;3.87;;;;;;;3.47;79.15;99836.02;1761740;79;21210;-47
2021/04/24 02:28:14;;;;;;;7.17;3.60;;;;;;;3.45;79.33;99845.36;1764145;79;21013;-46
2021/04/24 02:30:43;;;;;;;8.20;3.85;;;;;;;3.41;79.69;99854.34;1759359;79;21615;-47
2021/04/24 02:33:11;;;;;;;5.25;4.00;;;;;;;3.38;80.74;99846.39;1761808;79;21025;-47
2021/04/24 02:35:50;;;;;;;7.33;4.05;;;;;;;3.35;80.92;99838.45;1751198;79;22125;-46
2021/04/24 02:38:32;;;;;;;6.83;4.07;;;;;;;3.39;81.07;99837.48;1799567;76;28347;-45
2021/04/24 02:41:03;;;;;;;9.90;3.98;;;;;;;3.36;81.09;99836.23;1774486;79;21013;-47
2021/04/24 02:43:31;;;;;;;7.50;4.25;;;;;;;3.36;81.27;99836.23;1757177;79;21367;-46
2021/04/24 02:46:01;;;;;;;7.37;4.05;;;;;;;3.33;81.75;99833.61;1758385;79;20986;-48
2021/04/24 02:48:29;;;;;;;5.42;4.00;;;;;;;3.31;82.20;99842.11;1758551;79;21601;-45
2021/04/24 02:50:56;;;;;;;5.35;3.95;;;;;;;3.29;82.53;99842.57;1759596;79;21605;-51
2021/04/24 02:53:24;;;;;;;6.37;4.05;;;;;;;3.25;82.76;99843.53;1757725;79;20978;-51
2021/04/24 02:55:52;;;;;;;6.17;3.77;;;;;;;3.22;83.13;99843.14;1758652;79;22276;-50
2021/04/24 02:58:20;;;;;;;5.95;4.22;;;;;;;3.21;83.06;99844.52;1757818;79;21012;-51
2021/04/24 03:00:48;;;;;;;6.95;4.50;;;;;;;3.20;83.31;99853.42;1758688;79;20961;-50
2021/04/24 03:03:16;;;;;;;5.55;4.20;;;;;;;3.21;83.38;99851.18;1757526;79;21017;-53
2021/04/24 03:05:44;;;;;;;6.30;4.12;;;;;;;3.20;83.83;99856.09;1758527;79;20970;-52
2021/04/24 03:08:12;;;;;;;6.03;3.77;;;;;;;3.20;84.00;99865.42;1757093;79;21382;-51
2021/04/24 03:10:41;;;;;;;6.00;4.05;;;;;;;3.20;84.14;99854.30;1760449;79;21171;-56
2021/04/24 03:13:10;;;;;;;8.10;4.30;;;;;;;3.21;84.18;99853.84;1759898;79;20986;-55
2021/04/24 03:15:39;;;;;;;6.50;4.12;;;;;;;3.23;84.39;99858.68;1766653;79;21017;-59
2021/04/24 03:18:07;;;;;;;4.78;3.72;;;;;;;3.24;84.46;99857.31;1758426;79;21098;-60
2021/04/24 03:20:36;;;;;;;5.15;3.37;;;;;;;3.23;84.70;99856.02;1765346;79;21191;-50
2021/04/24 03:23:04;;;;;;;9.63;4.25;;;;;;;3.24;84.62;99848.44;1759361;79;21108;-47
2021/04/24 03:25:32;;;;;;;7.90;3.83;;;;;;;3.25;84.60;99850.19;1760353;79;21713;-48
2021/04/24 03:28:00;;;;;;;6.70;4.15;;;;;;;3.28;84.69;99851.48;1758893;79;20981;-48
2021/04/24 03:30:29;;;;;;;5.35;3.92;;;;;;;3.29;84.71;99850.56;1762098;79;20993;-46
2021/04/24 03:32:58;;;;;;;6.58;4.65;;;;;;;3.31;84.78;99854.09;1758544;79;21195;-49
2021/04/24 03:35:26;;;;;;;5.42;3.25;;;;;;;3.32;84.82;99860.72;1761395;79;21582;-46
2021/04/24 03:37:54;;;;;;;6.70;4.05;;;;;;;3.35;84.87;99865.10;1767259;78;21132;-47
2021/04/24 03:40:23;;;;;;;6.58;3.85;;;;;;;3.34;84.85;99863.35;1772709;78;21201;-49
2021/04/24 03:42:53;;;;;;;8.65;3.77;;;;;;;3.37;84.88;99871.30;1773896;78;21127;-45
2021/04/24 03:45:22;;;;;;;6.20;3.70;;;;;;;3.41;84.69;99877.00;1751137;79;21262;-48
2021/04/24 03:47:54;;;;;;;8.95;4.95;;;;;;;3.48;84.73;99887.09;1753401;79;21628;-45
2021/04/24 03:50:24;;;;;;;6.95;4.70;;;;;;;3.50;84.44;99887.47;1751921;79;21704;-46
2021/04/24 03:52:52;;;;;;;7.33;5.10;;;;;;;3.52;84.22;99889.67;1753000;79;20997;-46
2021/04/24 03:55:21;;;;;;;12.82;6.08;;;;;;;3.55;84.32;99892.27;1751111;80;21747;-48
2021/04/24 03:57:49;;;;;;;9.25;6.85;;;;;;;3.58;84.13;99888.22;1752478;79;22061;-55
2021/04/24 04:00:19;;;;;;;6.60;4.90;;;;;;;3.61;83.97;99878.80;1753681;79;21163;-56
2021/04/24 04:02:57;;;;;;;6.67;4.47;;;;;;;3.64;83.57;99894.75;1754116;79;21122;-57
2021/04/24 04:05:28;;;;;;;9.48;4.28;;;;;;;3.65;83.51;99893.84;1757397;79;21105;-59
2021/04/24 04:07:57;;;;;;;;;;;;;;;3.66;83.20;99906.26;1732262;81;20972;-56
2021/04/24 04:10:25;;;;;;;8.58;4.03;;;;;;;3.67;82.86;99904.47;1704525;81;21439;-55
2021/04/24 04:12:54;;;;;;;5.85;3.70;;;;;;;3.66;82.77;99896.92;1752730;79;20982;-55
2021/04/24 04:15:23;;;;;;;8.75;3.95;;;;;;;3.67;82.65;99901.37;1704755;82;21300;-58
2021/04/24 04:18:16;;;;;;;7.72;3.80;;;;;;;3.73;82.39;99898.12;1752574;80;21005;-56
2021/04/24 04:20:46;;;;;;;5.60;3.58;;;;;;;3.76;82.30;99895.41;1705811;82;21438;-55
2021/04/24 04:23:16;;;;;;;7.20;4.45;;;;;;;3.83;81.88;99897.03;1758858;79;22292;-57
2021/04/24 04:25:45;;;;;;;6.97;3.60;;;;;;;3.90;81.53;99904.02;1707514;82;21121;-55
2021/04/24 04:28:14;;;;;;;7.25;4.47;;;;;;;3.92;81.02;99903.52;1760653;79;21005;-57
2021/04/24 04:30:41;;;;;;;6.55;4.47;;;;;;;3.94;80.51;99909.27;1706615;82;21156;-54
2021/04/24 04:33:09;;;;;;;6.00;4.28;;;;;;;3.97;80.52;99912.31;1752131;80;21084;-57
2021/04/24 04:35:41;;;;;;;4.20;3.47;;;;;;;4.01;79.92;99917.14;1706517;82;21349;-56
2021/04/24 04:38:09;;;;;;;4.85;3.85;;;;;;;4.02;79.73;99922.44;1759426;79;21163;-57
2021/04/24 04:40:38;;;;;;;6.87;4.47;;;;;;;4.07;79.49;99917.88;1754365;79;21601;-56
2021/04/24 04:43:06;;;;;;;7.33;3.62;;;;;;;4.08;79.10;99914.30;1751691;79;21398;-57
2021/04/24 04:45:34;;;;;;;6.80;3.70;;;;;;;4.09;78.86;99918.72;1755294;79;20963;-55
2021/04/24 04:48:02;;;;;;;4.75;3.40;;;;;;;4.13;78.72;99923.09;1707101;82;21347;-55
2021/04/24 04:50:35;;;;;;;7.28;4.20;;;;;;;4.18;78.56;99911.86;1752717;80;21009;-57
2021/04/24 04:53:03;;;;;;;4.62;3.42;;;;;;;4.24;78.28;99920.64;1705331;82;21068;-55
2021/04/24 04:55:31;;;;;;;6.95;3.52;;;;;;;4.27;78.12;99911.25;1757279;80;21571;-57
2021/04/24 04:58:00;;;;;;;5.80;3.90;;;;;;;4.30;77.89;99912.50;1706052;80;21011;-56
2021/04/24 05:00:28;;;;;;;6.62;4.17;;;;;;;4.28;77.74;99910.33;1751848;79;22272;-55
2021/04/24 05:02:56;;;;;;;6.92;3.67;;;;;;;4.26;77.95;99920.14;1706618;80;21001;-56
2021/04/24 05:05:25;;;;;;;6.40;3.62;;;;;;;4.27;77.86;99914.80;1751300;80;20993;-55
2021/04/24 05:07:53;;;;;;;8.93;4.40;;;;;;;4.32;77.64;99917.36;1703113;82;21138;-55
2021/04/24 05:10:24;;;;;;;7.72;4.15;;;;;;;4.37;77.73;99920.81;1752441;79;21239;-56
2021/04/24 05:12:52;;;;;;;6.25;4.10;;;;;;;4.43;77.59;99908.66;1704139;82;21218;-55
2021/04/24 05:15:21;;;;;;;5.95;4.08;;;;;;;4.49;77.56;99919.19;1757217;79;21124;-57
2021/04/24 05:17:49;;;;;;;5.83;3.60;;;;;;;4.54;77.17;99909.74;1705741;82;21220;-54
2021/04/24 05:20:17;;;;;;;5.10;3.00;;;;;;;4.59;76.51;99911.39;1757344;79;20994;-58
2021/04/24 05:22:46;;;;;;;6.45;3.25;;;;;;;4.66;75.71;99917.00;1703459;82;21096;-59
2021/04/24 05:25:17;;;;;;;5.15;3.15;;;;;;;4.71;75.33;99909.75;1752941;79;21743;-54
2021/04/24 05:27:54;;;;;;;6.47;3.70;;;;;;;4.80;75.09;99912.67;1811277;78;23077;-54
2021/04/24 05:30:23;;;;;;;6.60;3.55;;;;;;;4.79;75.05;99906.01;1748539;81;21077;-51
2021/04/24 05:32:52;;;;;;;4.17;2.95;;;;;;;4.82;74.84;99915.30;1748469;81;21487;-48
2021/04/24 05:35:20;;;;;;;7.30;3.67;;;;;;;4.83;74.76;99911.70;1747327;80;21157;-47
2021/04/24 05:37:48;;;;;;;5.40;3.08;;;;;;;4.86;74.69;99915.66;1747620;80;21039;-57
2021/04/24 05:40:16;;;;;;;6.45;3.62;;;;;;;4.91;74.67;99915.09;1749034;80;21156;-49
2021/04/24 05:42:44;;;;;;;6.15;3.08;;;;;;;4.98;74.63;99911.33;1746171;80;21114;-48
2021/04/24 05:45:14;;;;;;;5.78;3.42;;;;;;;5.04;74.14;99908.97;1746823;80;21154;-47
2021/04/24 05:47:45;;;;;;;7.78;3.72;;;;;;;5.05;74.18;99906.70;1747080;80;21066;-48
2021/04/24 05:50:15;;;;;;;4.27;3.23;;;;;;;5.06;74.12;99906.69;1745909;81;21493;-59
2021/04/24 05:52:44;;;;;;;5.37;3.42;;;;;;;5.08;74.14;99915.53;1748375;80;21865;-55
2021/04/24 05:55:14;;;;;;;3.77;3.10;;;;;;;5.08;73.90;99914.20;1746015;80;21041;-57
2021/04/24 05:57:43;;;;;;;3.77;3.12;;;;;;;5.05;73.04;99917.40;1745563;80;21201;-58
2021/04/24 06:00:18;;;;;;;6.78;3.20;;;;;;;4.99;73.01;99921.98;1746361;80;21647;-55
2021/04/24 06:02:47;;;;;;;4.08;3.35;;;;;;;5.00;73.07;99925.52;1744804;80;20999;-56
2021/04/24 06:05:16;;;;;;;4.95;3.40;;;;;;;4.98;72.70;99926.03;1745224;80;21153;-59
2021/04/24 06:07:46;;;;;;;6.12;3.70;;;;;;;4.99;72.83;99929.12;1745525;81;20992;-59
2021/04/24 06:10:16;;;;;;;4.97;3.83;;;;;;;5.02;72.70;99934.41;1745681;80;22248;-60
2021/04/24 06:12:44;;;;;;;7.95;3.87;;;;;;;5.04;71.96;99921.87;1743964;80;22074;-59
2021/04/24 06:15:13;;;;;;;7.47;3.25;;;;;;;5.06;71.45;99922.73;1744018;80;21161;-56
2021/04/24 06:17:41;;;;;;;9.08;3.25;;;;;;;5.12;71.54;99921.23;1745494;81;21055;-55
2021/04/24 06:20:11;;;;;;;5.92;3.30;;;;;;;5.23;71.64;99919.16;1747208;80;20992;-53
2021/04/24 06:22:39;;;;;;;7.30;3.55;;;;;;;5.35;71.44;99922.43;1746188;80;21212;-52
2021/04/24 06:25:08;;;;;;;5.50;3.35;;;;;;;5.39;70.60;99917.42;1744904;81;21579;-53
2021/04/24 06:27:37;;;;;;;5.17;3.40;;;;;;;5.43;70.36;99919.08;1739346;80;21711;-54
2021/04/24 06:30:06;;;;;;;7.22;3.60;;;;;;;5.45;69.66;99919.94;1735285;81;21520;-55
2021/04/24 06:32:35;;;;;;;5.17;2.95;;;;;;;5.41;67.61;99926.27;1735643;81;21114;-56
2021/04/24 06:35:05;;;;;;;4.85;3.15;;;;;;;5.33;67.53;99929.62;1735792;81;22183;-59
2021/04/24 06:37:41;;;;;;;4.53;2.87;;;;;;;5.37;64.97;99923.25;1808991;76;22678;-55
2021/04/24 06:40:12;;;;;;;9.48;2.85;;;;;;;5.25;62.60;99925.33;1789951;78;20954;-55
2021/04/24 06:42:42;;;;;;;3.65;2.67;;;;;;;5.26;61.06;99921.73;1761982;79;21014;-54
2021/04/24 06:45:11;;;;;;;6.35;2.67;;;;;;;5.35;60.50;99935.34;1762137;79;20974;-55
2021/04/24 06:47:39;;;;;;;4.75;2.35;;;;;;;5.42;58.31;99936.05;1759960;79;21033;-59
2021/04/24 06:50:08;;;;;;;5.30;3.80;;;;;;;5.48;58.50;99945.23;1764907;79;20958;-57
2021/04/24 06:52:36;;;;;;;3.15;2.40;;;;;;;5.56;59.08;99916.50;1738895;81;21036;-55
2021/04/24 06:55:06;;;;;;;4.65;2.35;;;;;;;5.65;58.08;99914.92;1739364;80;21680;-60
2021/04/24 06:57:34;;;;;;;5.42;2.20;;;;;;;5.69;57.32;99908.54;1730445;82;21013;-53
2021/04/24 07:00:07;;;;;;;4.05;2.47;;;;;;;5.71;57.09;99913.88;1712550;82;21481;-53
2021/04/24 07:02:35;;;;;;;2.77;2.12;;;;;;;5.75;56.19;99945.86;1712289;82;21002;-54
2021/04/24 07:05:04;;;;;;;3.72;2.02;;;;;;;5.71;54.44;99928.12;1740981;80;21156;-53
2021/04/24 07:07:32;;;;;;;6.12;2.75;;;;;;;5.69;54.87;99932.63;1728162;81;21392;-50
2021/04/24 07:10:01;;;;;;;4.28;2.40;;;;;;;5.69;55.25;99929.95;1729427;81;21001;-51
2021/04/24 07:12:29;;;;;;;3.42;1.85;;;;;;;5.73;55.01;99934.30;1728338;81;20977;-50
2021/04/24 07:14:57;;;;;;;5.33;2.33;;;;;;;5.73;52.09;99940.99;1741029;82;21386;-49
2021/04/24 07:17:25;;;;;;;2.85;1.95;;;;;;;5.82;50.04;99948.36;1741033;81;21127;-52
2021/04/24 07:19:53;;;;;;;5.85;1.92;;;;;;;5.86;49.14;99945.99;1711579;82;21379;-49
2021/04/24 07:22:21;;;;;;;4.00;1.90;;;;;;;5.94;49.56;99930.64;1731662;81;21049;-49
2021/04/24 07:24:49;;;;;;;4.35;2.50;;;;;;;6.04;49.56;99926.33;1728859;81;21578;-51
2021/04/24 07:27:17;;;;;;;3.90;1.67;;;;;;;6.17;48.92;99920.59;1739883;81;21025;-50
2021/04/24 07:29:45;;;;;;;4.80;1.95;;;;;;;6.21;48.29;99939.21;1712485;82;21193;-50
2021/04/24 07:32:13;;;;;;;3.33;1.70;;;;;;;6.26;46.07;99945.31;1739469;81;21364;-52
2021/04/24 07:34:41;;;;;;;4.50;2.27;;;;;;;6.23;46.22;99953.89;1734362;82;21037;-52
2021/04/24 07:37:09;;;;;;;2.85;1.72;;;;;;;6.20;46.82;99945.50;1733485;80;20997;-51
2021/04/24 07:39:37;;;;;;;3.65;1.57;;;;;;;6.23;47.48;99937.39;1702377;83;21601;-50
2021/04/24 07:42:05;;;;;;;3.72;1.90;;;;;;;6.34;48.11;99941.52;1722316;82;21002;-51
2021/04/24 07:44:37;;;;;;;7.22;1.82;;;;;;;6.43;47.51;99924.71;1728997;81;21359;-51
2021/04/24 07:47:03;;;;;;;3.33;1.65;;;;;;;6.55;46.91;99938.19;1701989;82;21145;-50
2021/04/24 07:49:31;;;;;;;2.92;1.82;;;;;;;6.63;44.23;99942.86;1719691;81;21157;-50
2021/04/24 07:52:03;;;;;;;2.15;1.57;;;;;;;6.63;44.90;99933.48;1679312;83;21171;-50
2021/04/24 07:54:31;;;;;;;4.37;1.43;;;;;;;6.64;44.99;99946.41;1707195;82;21121;-51
2021/04/24 07:56:59;;;;;;;2.22;1.45;;;;;;;6.65;45.03;99939.66;1759682;80;21408;-51
2021/04/24 07:59:27;;;;;;;2.67;1.60;;;;;;;6.59;44.86;99939.85;1728569;81;21175;-50
2021/04/24 08:01:56;;;;;;;3.05;1.32;;;;;;;6.56;44.83;99944.86;1729479;81;21136;-50
2021/04/24 08:04:24;;;;;;;3.08;1.62;;;;;;;6.55;44.97;99948.91;1692422;83;21198;-51
2021/04/24 08:06:52;;;;;;;3.47;1.47;;;;;;;6.50;45.36;99943.71;1708058;82;21515;-52
2021/04/24 08:09:20;;;;;;;3.25;1.70;;;;;;;6.48;45.64;99966.09;1754515;80;22125;-52
2021/04/24 08:11:49;;;;;;;3.05;1.30;;;;;;;6.50;46.01;99964.27;1756676;79;21024;-51
2021/04/24 08:14:16;;;;;;;2.92;1.60;;;;;;;6.50;45.42;99973.19;1755933;80;21564;-50
2021/04/24 08:16:46;;;;;;;2.25;1.40;;;;;;;6.48;44.34;99956.72;1729250;81;21474;-51
2021/04/24 08:19:14;;;;;;;3.70;1.47;;;;;;;6.45;44.40;99959.05;1728507;82;21136;-50
2021/04/24 08:21:43;;;;;;;3.17;1.42;;;;;;;6.42;44.11;99963.61;1728713;81;21366;-50
2021/04/24 08:24:12;;;;;;;2.35;1.40;;;;;;;6.43;44.42;99953.30;1701762;83;21137;-50
2021/04/24 08:26:40;;;;;;;4.75;1.40;;;;;;;6.47;44.54;99949.15;1717819;82;21005;-50
2021/04/24 08:29:08;;;;;;;3.40;1.80;;;;;;;6.55;44.37;99964.98;1707508;82;21610;-51
2021/04/24 08:31:37;;;;;;;3.90;1.65;;;;;;;6.60;43.84;99972.41;1755710;80;21001;-51
2021/04/24 08:34:06;;;;;;;1.82;1.50;;;;;;;6.64;44.20;99964.70;1755462;79;21469;-50
2021/04/24 08:36:34;;;;;;;2.65;1.27;;;;;;;6.70;43.39;99971.67;1758901;79;21161;-51
2021/04/24 08:39:04;;;;;;;5.80;1.10;;;;;;;6.72;43.11;99962.69;1780581;79;21546;-54
2021/04/24 08:41:32;;;;;;;2.12;1.40;;;;;;;6.70;43.07;99966.31;1779455;79;21533;-51
2021/04/24 08:44:00;;;;;;;2.77;1.10;;;;;;;6.62;43.43;99985.33;1780978;79;21085;-50
2021/04/24 08:46:28;;;;;;;3.22;1.67;;;;;;;6.60;43.98;99959.02;1781780;79;22274;-49
2021/04/24 08:48:57;;;;;;;1.65;1.30;;;;;;;6.58;44.62;99975.61;1780390;79;21390;-51
2021/04/24 08:51:29;;;;;;;4.53;1.57;;;;;;;6.60;44.90;99968.39;1780833;79;21125;-50
2021/04/24 08:53:59;;;;;;;2.50;1.20;;;;;;;6.57;44.42;99989.94;1780802;79;21401;-51
2021/04/24 08:56:28;;;;;;;2.22;1.10;;;;;;;6.51;44.64;99982.09;1780512;79;21517;-50
2021/04/24 08:58:57;;;;;;;3.60;1.22;;;;;;;6.51;45.33;99988.33;1780720;79;21374;-50
2021/04/24 09:01:25;;;;;;;1.20;0.82;;;;;;;6.57;46.01;99979.23;1779804;79;21553;-54
2021/04/24 09:03:53;;;;;;;1.10;0.80;;;;;;;6.64;45.51;99962.02;1780337;79;21542;-54
2021/04/24 09:06:22;;;;;;;5.55;1.40;;;;;;;6.67;44.62;99987.41;1780599;79;22743;-54
2021/04/24 09:08:59;;;;;;;2.02;1.22;;;;;;;6.69;44.60;99992.24;1780962;79;21100;-55
2021/04/24 09:11:29;;;;;;;1.72;0.95;;;;;;;6.67;44.79;99994.10;1779673;79;20986;-54
2021/04/24 09:14:01;;;;;;;2.17;1.20;;;;;;;6.69;45.46;99996.73;1781137;79;21614;-54
2021/04/24 09:16:31;;;;;;;4.00;1.30;;;;;;;6.68;45.78;99994.98;1780224;79;21152;-55
2021/04/24 09:18:59;;;;;;;1.98;1.07;;;;;;;6.64;46.11;99988.82;1779207;79;21197;-52
2021/04/24 09:21:29;;;;;;;1.27;1.10;;;;;;;6.62;45.30;99995.17;1780383;79;21069;-55
2021/04/24 09:23:57;;;;;;;3.67;1.12;;;;;;;6.62;45.25;99985.33;1780394;79;21382;-54
2021/04/24 09:26:27;;;;;;;3.00;1.07;;;;;;;6.67;45.29;99994.10;1780546;79;20979;-52
2021/04/24 09:29:03;;;;;;;5.00;1.40;;;;;;;6.73;44.40;99977.83;1780326;79;21005;-51
2021/04/24 09:31:34;;;;;;;3.47;1.37;;;;;;;6.92;44.64;99990.64;1780314;79;21056;-52
2021/04/24 09:34:02;;;;;;;2.42;1.05;;;;;;;7.05;43.58;99986.66;1780224;79;21136;-56
2021/04/24 09:36:36;;;;;;;3.10;1.20;;;;;;;7.04;43.99;99982.23;1776170;79;21384;-51
2021/04/24 09:39:09;;;;;;;3.70;1.20;;;;;;;7.02;44.72;99986.28;1755853;79;21029;-51
2021/04/24 09:41:40;;;;;;;1.65;1.17;;;;;;;7.03;44.76;99993.86;1759322;79;21281;-52
2021/04/24 09:44:14;;;;;;;5.40;1.22;;;;;;;6.98;45.23;99990.48;1730023;81;20962;-53
2021/04/24 09:46:52;;;;;;;1.65;0.93;;;;;;;6.87;45.88;99992.59;1721405;81;21120;-55
2021/04/24 09:49:31;;;;;;;1.32;1.17;;;;;;;6.73;45.93;99991.23;1718285;81;22231;-51
2021/04/24 09:52:08;;;;;;;4.40;1.20;;;;;;;6.73;47.08;99982.31;1791270;77;28608;-53
2021/04/24 09:54:43;;;;;;;1.52;1.00;;;;;;;6.85;46.69;99989.09;1788121;77;21004;-51
2021/04/24 09:59:14;;;;;;;1.50;1.30;;;;;;;7.06;45.71;99991.97;1768839;78;27521;-53
2021/04/24 10:01:42;;;;;;;2.00;1.57;;;;;;;7.05;45.89;99989.34;1757554;80;21012;-52
2021/04/24 10:04:12;;;;;;;2.35;1.20;;;;;;;6.99;46.59;100008.31;1760680;80;21641;-56
2021/04/24 10:06:42;;;;;;;1.70;1.10;;;;;;;6.94;46.65;100010.27;1690979;83;21656;-56
2021/04/24 10:09:22;;;;;;;1.82;0.90;;;;;;;6.85;46.12;100003.84;1712327;82;21656;-57
2021/04/24 10:12:11;;;;;;;2.47;0.90;;;;;;;6.73;46.76;100009.99;1725971;82;21002;-55
2021/04/24 10:14:45;;;;;;;3.42;1.17;;;;;;;6.62;46.93;100001.41;1688315;83;21030;-56
2021/04/24 10:17:17;;;;;;;1.27;1.10;;;;;;;6.51;46.89;100008.42;1698922;83;21385;-56
2021/04/24 10:19:47;;;;;;;1.67;1.13;;;;;;;6.49;47.04;100000.00;1727058;82;21046;-55
2021/04/24 10:22:23;;;;;;;3.02;1.82;;;;;;;6.52;46.93;99993.22;1705233;83;21013;-55
2021/04/24 10:24:52;;;;;;;1.82;1.07;;;;;;;6.61;47.02;100002.34;1700474;83;21682;-55
2021/04/24 10:27:21;;;;;;;1.77;1.30;;;;;;;6.80;45.84;100006.19;1716251;83;21535;-55
2021/04/24 10:29:49;;;;;;;1.75;1.27;;;;;;;6.91;44.64;100003.17;1699440;83;21640;-58
2021/04/24 10:32:18;;;;;;;2.10;0.90;;;;;;;6.97;43.92;100015.52;1723897;81;21114;-55
2021/04/24 10:34:46;;;;;;;0.90;0.70;;;;;;;6.94;41.12;100039.75;1701778;83;21630;-55
2021/04/24 10:37:14;;;;;;;1.70;0.95;;;;;;;6.82;40.32;100035.66;1704911;82;21214;-55
2021/04/24 10:39:42;;;;;;;1.85;1.02;;;;;;;6.73;40.81;100011.80;1714700;82;21174;-53
2021/04/24 10:42:25;;;;;;;1.55;1.02;;;;;;;6.77;41.09;100017.02;1718652;82;21281;-56
2021/04/24 10:44:58;;;;;;;2.52;1.30;;;;;;;6.86;41.19;100017.65;1709842;82;21033;-54
2021/04/24 10:47:44;;;;;;;2.02;1.17;;;;;;;6.94;41.64;100018.30;1713486;82;20946;-57
2021/04/24 10:50:19;;;;;;;3.15;1.20;;;;;;;7.00;42.58;100029.71;1713744;82;21183;-55
2021/04/24 10:53:17;;;;;;;2.90;1.17;;;;;;;7.07;43.04;100014.30;1816140;76;22784;-57
2021/04/24 10:55:46;;;;;;;2.30;1.07;;;;;;;7.04;43.06;100028.70;1812827;77;21065;-56
2021/04/24 10:58:17;;;;;;;2.52;1.62;;;;;;;7.01;42.56;100013.16;1729395;80;21607;-59
2021/04/24 11:00:53;;;;;;;5.35;1.40;;;;;;;7.06;42.46;100011.20;1757524;80;21194;-57
2021/04/24 11:03:46;;;;;;;1.50;1.00;;;;;;;7.12;41.75;99996.26;1814101;77;20950;-57
2021/04/24 11:06:22;;;;;;;2.05;1.25;;;;;;;7.28;41.57;100004.69;1813717;77;21526;-58
2021/04/24 11:09:16;;;;;;;2.25;0.98;;;;;;;7.49;40.38;100008.47;1812916;77;20981;-57
2021/04/24 11:11:48;;;;;;;2.55;1.25;;;;;;;7.60;40.58;100000.92;1808240;77;21595;-60
2021/04/24 11:14:18;;;;;;;2.42;1.00;;;;;;;7.68;39.89;100000.21;1769344;79;22020;-58
2021/04/24 11:16:46;;;;;;;5.83;1.57;;;;;;;7.65;39.94;100007.02;1783283;79;21397;-62
2021/04/24 11:19:40;;;;;;;2.42;1.15;;;;;;;7.56;39.60;100023.42;1785079;79;20934;-59
2021/04/24 11:22:43;;;;;;;1.90;1.20;;;;;;;7.47;39.70;100004.97;1820543;75;22824;-59
2021/04/24 11:25:29;;;;;;;2.33;1.52;;;;;;;7.41;39.14;100021.27;1815908;77;20994;-57
2021/04/24 11:28:06;;;;;;;2.47;1.30;;;;;;;7.43;38.99;100027.45;1816527;77;21255;-59
2021/04/24 11:30:58;;;;;;;1.32;0.90;;;;;;;7.50;39.04;100023.63;1817294;77;21013;-58
2021/04/24 11:33:45;;;;;;;2.12;1.07;;;;;;;7.53;38.16;100023.55;1817765;77;21394;-57
2021/04/24 11:39:15;;;;;;;2.37;1.30;;;;;;;7.54;38.62;100007.38;1846470;75;22624;-60
2021/04/24 11:41:46;;;;;;;2.50;1.12;;;;;;;7.53;38.81;100029.78;1821371;76;20969;-59
2021/04/24 11:44:23;;;;;;;5.20;1.10;;;;;;;7.54;38.42;100027.98;1816469;76;21385;-58
2021/04/24 11:46:56;;;;;;;3.05;1.45;;;;;;;7.51;38.33;100020.01;1828330;76;21735;-59
2021/04/24 11:49:27;;;;;;;2.62;1.57;;;;;;;7.48;38.65;100018.80;1817714;76;20965;-58
2021/04/24 11:51:58;;;;;;;;;;;;;;;7.49;38.28;100020.08;1814203;77;21171;-57
2021/04/24 11:54:38;;;;;;;2.67;1.00;;;;;;;7.50;37.88;100015.58;1809917;77;20134;-56
2021/04/24 11:57:15;;;;;;;1.98;1.20;;;;;;;7.48;38.32;100007.59;1821186;76;21436;-62
2021/04/24 11:59:44;;;;;;;4.22;1.42;;;;;;;7.57;38.31;100003.73;1815339;76;21001;-58
2021/04/24 12:02:22;;;;;;;2.37;1.30;;;;;;;7.70;37.85;100005.05;1816567;76;21016;-58
2021/04/24 12:05:05;;;;;;;2.50;1.40;;;;;;;7.87;37.53;99994.59;1843677;74;38062;-56